Pleasant Plains, Illinois
Current Conditions -  °F | °C
As of 8:52 PM on Sunday 23 Nov 2014 (Local Time) from KSPI Reporting Station
Light Rain Light Rain  
Wind Chill: 11°   Ceiling: 400
Heat Index: 11°   Visibility: 7mi
Dew Point: 10°   Wind: 5mph
Humidity: 96%   Direction: 250°WSW
Pressure: 29.23"   Gusts: NA
Location:  39.87°N, 89.92°W
Report Text: KSPI 240252Z 25004KT 7SM -RA OVC004 11/10 A2923 RMK AO2 SLP897 P0002 60016 T01060100 57028
Loading
Personal Weather Stations






























Interactive Weather Map New forecast layout! Learn more

10-Day Weather Forecast

Advertisements
Track Severe Weather on mobile